Time;durP1;ratioP1;P1;durP2;ratioP2;P2;SDS_P1;SDS_P2;PMS_P1;PMS_P2;Temp;Humidity;BMP_temperature;BMP_pressure;BME280_temperature;BME280_humidity;BME280_pressure;Samples;Min_cycle;Max_cycle;Signal;HPM_P1;HPM_P2
2022/01/05 00:01:06;;;;;;;0.67;0.60;;;4.60;99.90;;;;;;4976934;28;20438;-70
2022/01/05 00:03:33;;;;;;;0.67;0.60;;;4.50;99.90;;;;;;4977222;28;20469;-70
2022/01/05 00:05:58;;;;;;;0.67;0.60;;;4.40;99.90;;;;;;4994103;28;20963;-70
2022/01/05 00:08:25;;;;;;;0.67;0.60;;;4.40;99.90;;;;;;4994008;28;20455;-71
2022/01/05 00:10:52;;;;;;;0.67;0.60;;;4.30;99.90;;;;;;4992492;28;20192;-70
2022/01/05 00:13:17;;;;;;;0.67;0.60;;;4.20;99.90;;;;;;4994023;28;20440;-70
2022/01/05 00:15:43;;;;;;;0.70;0.60;;;4.20;99.90;;;;;;4993385;28;20432;-70
2022/01/05 00:18:08;;;;;;;0.67;0.60;;;4.20;99.90;;;;;;4993962;28;20618;-70
2022/01/05 00:20:34;;;;;;;0.67;0.50;;;4.20;99.90;;;;;;4993432;28;20232;-69
2022/01/05 00:23:00;;;;;;;0.70;0.60;;;4.20;99.90;;;;;;4993738;28;20700;-69
2022/01/05 00:25:25;;;;;;;0.67;0.60;;;4.10;99.90;;;;;;4993895;28;20193;-68
2022/01/05 00:27:51;;;;;;;0.63;0.60;;;4.10;99.90;;;;;;4993279;28;20836;-69
2022/01/05 00:30:16;;;;;;;0.67;0.60;;;4.00;99.90;;;;;;4975517;28;20201;-69
2022/01/05 00:32:42;;;;;;;0.70;0.60;;;4.00;99.90;;;;;;4976887;28;20168;-69
2022/01/05 00:35:08;;;;;;;0.60;0.50;;;3.90;99.90;;;;;;4976669;28;20212;-69
2022/01/05 00:37:33;;;;;;;0.67;0.53;;;3.90;99.90;;;;;;4994143;28;20165;-70
2022/01/05 00:39:59;;;;;;;0.67;0.60;;;3.90;99.90;;;;;;4992846;28;20435;-70
2022/01/05 00:42:24;;;;;;;0.70;0.60;;;3.90;99.90;;;;;;4993664;28;20173;-71
2022/01/05 00:44:50;;;;;;;0.67;0.50;;;3.90;99.90;;;;;;4993265;28;20208;-70
2022/01/05 00:47:16;;;;;;;0.67;0.60;;;3.90;99.90;;;;;;4992930;28;20188;-70
2022/01/05 00:49:42;;;;;;;0.60;0.50;;;3.90;99.90;;;;;;4992709;28;20460;-70
2022/01/05 00:52:08;;;;;;;0.67;0.60;;;3.80;99.90;;;;;;4993554;28;20172;-71
2022/01/05 00:54:34;;;;;;;0.67;0.60;;;3.80;99.90;;;;;;4993342;28;20867;-70
2022/01/05 00:57:00;;;;;;;0.63;0.60;;;3.80;99.90;;;;;;4993132;28;20519;-70
2022/01/05 00:59:25;;;;;;;0.97;0.73;;;3.70;99.90;;;;;;4992681;28;20177;-70
2022/01/05 01:01:51;;;;;;;0.67;0.60;;;3.70;99.90;;;;;;4992750;28;20184;-70
2022/01/05 01:04:17;;;;;;;1.70;1.60;;;3.80;99.90;;;;;;4993061;28;20177;-71
2022/01/05 01:06:42;;;;;;;0.67;0.60;;;3.80;99.90;;;;;;4993234;28;20432;-70
2022/01/05 01:09:08;;;;;;;0.67;0.60;;;3.70;99.90;;;;;;4993378;28;20693;-70
2022/01/05 01:11:34;;;;;;;0.70;0.70;;;3.80;99.90;;;;;;4992812;28;20173;-70
2022/01/05 01:13:59;;;;;;;0.67;0.60;;;3.70;99.90;;;;;;4993260;28;20431;-70
2022/01/05 01:16:25;;;;;;;0.67;0.60;;;3.80;99.90;;;;;;4975990;28;20243;-70
2022/01/05 01:18:50;;;;;;;0.67;0.50;;;3.80;99.90;;;;;;4993179;28;20176;-70
2022/01/05 01:21:16;;;;;;;1.20;1.10;;;3.90;99.90;;;;;;4992069;28;20180;-70
2022/01/05 01:23:53;;;;;;;1.00;0.93;;;3.80;99.90;;;;;;4992241;28;20173;-71
2022/01/05 01:26:21;;;;;;;0.70;0.67;;;3.80;99.90;;;;;;4980475;28;20276;-70
2022/01/05 01:28:47;;;;;;;0.60;0.60;;;3.80;99.90;;;;;;4975725;28;20429;-70
2022/01/05 01:31:13;;;;;;;0.67;0.50;;;3.90;99.90;;;;;;4991819;28;20562;-70
2022/01/05 01:33:38;;;;;;;0.60;0.60;;;3.90;99.90;;;;;;4990502;28;20175;-70
2022/01/05 01:36:04;;;;;;;0.67;0.50;;;3.90;99.90;;;;;;4977545;28;20201;-71
2022/01/05 01:38:29;;;;;;;0.67;0.60;;;3.90;99.90;;;;;;4985002;28;20192;-70
2022/01/05 01:40:55;;;;;;;0.63;0.50;;;3.90;99.90;;;;;;4973592;28;20263;-71
2022/01/05 01:43:20;;;;;;;0.60;0.60;;;3.90;99.90;;;;;;4971114;28;20227;-70
2022/01/05 01:45:46;;;;;;;0.67;0.60;;;3.90;99.90;;;;;;4992305;28;20193;-70
2022/01/05 01:48:12;;;;;;;0.60;0.60;;;3.90;99.90;;;;;;4992465;28;20597;-70
2022/01/05 01:50:37;;;;;;;0.67;0.60;;;3.90;99.90;;;;;;4992619;28;20189;-70
2022/01/05 01:53:03;;;;;;;0.73;0.73;;;3.90;99.90;;;;;;4992190;28;20181;-70
2022/01/05 01:55:29;;;;;;;0.60;0.50;;;3.80;99.90;;;;;;4988753;28;20231;-70
2022/01/05 01:57:55;;;;;;;0.67;0.60;;;3.80;99.90;;;;;;4983593;28;20173;-70
2022/01/05 02:00:21;;;;;;;0.60;0.60;;;3.80;99.90;;;;;;4992562;28;20527;-71
2022/01/05 02:02:46;;;;;;;0.60;0.50;;;3.70;99.90;;;;;;4992303;28;20482;-71
2022/01/05 02:05:12;;;;;;;0.90;0.90;;;3.60;99.90;;;;;;4992778;28;20962;-70
2022/01/05 02:07:38;;;;;;;0.70;0.70;;;3.50;99.90;;;;;;4992832;28;20789;-69
2022/01/05 02:10:05;;;;;;;0.67;0.60;;;3.50;99.90;;;;;;4974975;28;20447;-69
2022/01/05 02:12:31;;;;;;;0.67;0.60;;;3.50;99.90;;;;;;4992127;28;20555;-69
2022/01/05 02:14:57;;;;;;;0.67;0.60;;;3.40;99.90;;;;;;4992381;28;20424;-70
2022/01/05 02:17:30;;;;;;;0.70;0.60;;;3.40;99.90;;;;;;4991727;28;20188;-68
2022/01/05 02:19:55;;;;;;;0.67;0.60;;;3.40;99.90;;;;;;4992482;28;20177;-69
2022/01/05 02:22:21;;;;;;;0.70;0.60;;;3.30;99.90;;;;;;4991947;28;20793;-70
2022/01/05 02:24:47;;;;;;;0.60;0.60;;;3.30;99.90;;;;;;4991815;28;20196;-70
2022/01/05 02:27:14;;;;;;;0.70;0.70;;;3.30;99.90;;;;;;4991927;28;20172;-69
2022/01/05 02:29:40;;;;;;;1.17;1.13;;;3.30;99.90;;;;;;4992293;28;20455;-70
2022/01/05 02:32:06;;;;;;;0.67;0.60;;;3.30;99.90;;;;;;4992427;28;20499;-69
2022/01/05 02:34:32;;;;;;;0.70;0.60;;;3.30;99.90;;;;;;4992672;28;20189;-70
2022/01/05 02:36:57;;;;;;;0.67;0.60;;;3.30;99.90;;;;;;4996035;28;20906;-70
2022/01/05 02:39:23;;;;;;;0.60;0.60;;;3.20;99.90;;;;;;4996487;28;20173;-70
2022/01/05 02:41:49;;;;;;;0.67;0.60;;;3.20;99.90;;;;;;4978927;28;20243;-70
2022/01/05 02:44:14;;;;;;;0.60;0.60;;;3.20;99.90;;;;;;4995471;28;20184;-70
2022/01/05 02:46:40;;;;;;;0.67;0.50;;;3.20;99.90;;;;;;4995482;28;20423;-68
2022/01/05 02:49:05;;;;;;;0.67;0.50;;;3.10;99.90;;;;;;4996170;28;20169;-71
2022/01/05 02:51:31;;;;;;;0.67;0.60;;;3.10;99.90;;;;;;4995701;28;20200;-71
2022/01/05 02:53:56;;;;;;;0.60;0.60;;;3.10;99.90;;;;;;4978224;28;20648;-69
2022/01/05 02:56:22;;;;;;;0.70;0.70;;;3.00;99.90;;;;;;4993600;28;20203;-69
2022/01/05 02:58:48;;;;;;;1.17;0.80;;;3.00;99.90;;;;;;4994292;28;20242;-71
2022/01/05 03:01:14;;;;;;;1.13;1.13;;;3.00;99.90;;;;;;4991971;28;20471;-69
2022/01/05 03:03:41;;;;;;;0.60;0.60;;;3.00;99.90;;;;;;4977545;28;20239;-69
2022/01/05 03:06:07;;;;;;;0.70;0.70;;;2.90;99.90;;;;;;4995131;28;20430;-69
2022/01/05 03:08:32;;;;;;;0.67;0.60;;;2.90;99.90;;;;;;4974876;28;20192;-69
2022/01/05 03:10:59;;;;;;;0.67;0.60;;;2.90;99.90;;;;;;4993984;28;20217;-69
2022/01/05 03:13:25;;;;;;;0.97;0.97;;;2.90;99.90;;;;;;4989618;28;20182;-69
2022/01/05 03:15:52;;;;;;;0.63;0.60;;;2.90;99.90;;;;;;4984864;28;20470;-69
2022/01/05 03:18:17;;;;;;;0.60;0.53;;;2.80;99.90;;;;;;4995379;28;20165;-69
2022/01/05 03:20:46;;;;;;;0.67;0.57;;;2.80;99.90;;;;;;4995608;28;20439;-69
2022/01/05 03:23:12;;;;;;;0.67;0.60;;;2.80;99.90;;;;;;4995249;28;20199;-68
2022/01/05 03:25:38;;;;;;;0.67;0.50;;;2.80;99.90;;;;;;4994473;28;20982;-69
2022/01/05 03:28:03;;;;;;;0.60;0.60;;;2.80;99.90;;;;;;4993657;28;20625;-69
2022/01/05 03:30:30;;;;;;;0.60;0.53;;;2.80;99.90;;;;;;4994911;28;20208;-69
2022/01/05 03:35:23;;;;;;;0.70;0.70;;;2.70;99.90;;;;;;4993347;28;20460;-70
2022/01/05 03:37:48;;;;;;;4.57;4.17;;;2.70;99.90;;;;;;4991611;28;20439;-70
2022/01/05 03:40:14;;;;;;;0.67;0.50;;;2.70;99.90;;;;;;4993390;28;20558;-69
2022/01/05 03:42:39;;;;;;;0.60;0.60;;;2.70;99.90;;;;;;4995852;28;20173;-69
2022/01/05 03:45:06;;;;;;;0.70;0.70;;;2.70;99.90;;;;;;4993337;28;20193;-69
2022/01/05 03:47:31;;;;;;;2.20;1.33;;;2.60;99.90;;;;;;4988118;28;20204;-69
2022/01/05 03:49:57;;;;;;;0.80;0.80;;;2.60;99.90;;;;;;4994048;28;20962;-69
2022/01/05 03:52:23;;;;;;;0.73;0.70;;;2.60;99.90;;;;;;4994417;28;20187;-68
2022/01/05 03:54:48;;;;;;;0.60;0.60;;;2.60;99.90;;;;;;4994495;28;20613;-69
2022/01/05 03:57:14;;;;;;;0.80;0.80;;;2.60;99.90;;;;;;4992681;28;20604;-69
2022/01/05 03:59:39;;;;;;;0.70;0.70;;;2.60;99.90;;;;;;4992789;28;20604;-69
2022/01/05 04:02:05;;;;;;;0.80;0.80;;;2.60;99.90;;;;;;4993694;28;20196;-68
2022/01/05 04:04:30;;;;;;;0.60;0.60;;;2.60;99.90;;;;;;4994459;28;20251;-69
2022/01/05 04:06:56;;;;;;;0.80;0.80;;;2.60;99.90;;;;;;4988760;28;20216;-70
2022/01/05 04:09:21;;;;;;;0.67;0.50;;;2.50;99.90;;;;;;4957610;28;20213;-70
2022/01/05 04:11:47;;;;;;;0.67;0.60;;;2.50;99.90;;;;;;4957679;28;20520;-70
2022/01/05 04:14:13;;;;;;;0.60;0.50;;;2.50;99.90;;;;;;4974866;28;20231;-70
2022/01/05 04:16:38;;;;;;;0.67;0.57;;;2.50;99.90;;;;;;4989691;28;20184;-70
2022/01/05 04:19:04;;;;;;;0.70;0.60;;;2.50;99.90;;;;;;4993576;28;20264;-70
2022/01/05 04:21:29;;;;;;;0.60;0.60;;;2.40;99.90;;;;;;4993420;28;20192;-71
2022/01/05 04:23:55;;;;;;;0.67;0.60;;;2.40;99.90;;;;;;4993459;28;20646;-70
2022/01/05 04:26:20;;;;;;;0.70;0.70;;;2.40;99.90;;;;;;4992100;28;20234;-71
2022/01/05 04:28:46;;;;;;;0.67;0.50;;;2.40;99.90;;;;;;4992984;28;20664;-69
2022/01/05 04:31:11;;;;;;;0.60;0.53;;;2.30;99.90;;;;;;4991737;28;20205;-69
2022/01/05 04:33:37;;;;;;;0.67;0.60;;;2.30;99.90;;;;;;4993287;28;20213;-69
2022/01/05 04:36:03;;;;;;;2.10;2.00;;;2.30;99.90;;;;;;4975065;28;20592;-70
2022/01/05 04:38:29;;;;;;;0.60;0.50;;;2.30;99.90;;;;;;4993340;28;20184;-71
2022/01/05 04:40:54;;;;;;;0.60;0.57;;;2.20;99.90;;;;;;4990883;28;20439;-71
2022/01/05 04:43:20;;;;;;;0.60;0.60;;;2.30;99.90;;;;;;4992944;28;20173;-71
2022/01/05 04:45:47;;;;;;;0.63;0.50;;;2.30;99.90;;;;;;4991106;28;20227;-70
2022/01/05 04:48:13;;;;;;;0.60;0.50;;;2.20;99.90;;;;;;4990036;28;20456;-70
2022/01/05 04:50:39;;;;;;;0.67;0.50;;;2.20;99.90;;;;;;4992410;28;20518;-70
2022/01/05 04:53:05;;;;;;;0.60;0.60;;;2.20;99.90;;;;;;4993548;28;20165;-69
2022/01/05 04:55:30;;;;;;;1.10;1.10;;;2.20;99.90;;;;;;4975502;28;20212;-68
2022/01/05 04:57:56;;;;;;;0.70;0.60;;;2.10;99.90;;;;;;4991026;28;20210;-69
2022/01/05 05:00:21;;;;;;;0.67;0.53;;;2.10;99.90;;;;;;4993177;28;20238;-69
2022/01/05 05:02:48;;;;;;;0.60;0.50;;;2.10;99.90;;;;;;4993929;28;20194;-69
2022/01/05 05:05:14;;;;;;;0.60;0.50;;;2.00;99.90;;;;;;4992508;28;20288;-69
2022/01/05 05:07:40;;;;;;;1.00;1.00;;;2.00;99.90;;;;;;4992761;28;20547;-70
2022/01/05 05:10:05;;;;;;;0.60;0.60;;;2.10;99.90;;;;;;4992469;28;20212;-69
2022/01/05 05:12:31;;;;;;;0.60;0.50;;;2.10;99.90;;;;;;4992917;28;20645;-70
2022/01/05 05:14:56;;;;;;;2.00;1.53;;;2.10;99.90;;;;;;4993071;28;20231;-69
2022/01/05 05:17:22;;;;;;;0.60;0.50;;;2.00;99.90;;;;;;4992131;28;20303;-71
2022/01/05 05:19:47;;;;;;;0.97;0.70;;;2.00;99.90;;;;;;4993042;28;20176;-70
2022/01/05 05:22:13;;;;;;;0.60;0.60;;;2.00;99.90;;;;;;4991700;28;20704;-71
2022/01/05 05:24:38;;;;;;;0.67;0.60;;;2.00;99.90;;;;;;4991389;28;20551;-69
2022/01/05 05:27:05;;;;;;;0.60;0.53;;;2.00;99.90;;;;;;4991980;28;20275;-70
2022/01/05 05:29:31;;;;;;;0.60;0.60;;;2.00;99.90;;;;;;4992945;28;20194;-70
2022/01/05 05:31:56;;;;;;;1.13;0.80;;;1.90;99.90;;;;;;4992617;28;20438;-68
2022/01/05 05:34:22;;;;;;;0.60;0.50;;;1.90;99.90;;;;;;4991944;28;20653;-69
2022/01/05 05:36:47;;;;;;;0.60;0.50;;;1.90;99.90;;;;;;4974358;28;20194;-69
2022/01/05 05:39:14;;;;;;;0.60;0.60;;;1.90;99.90;;;;;;4991222;28;20208;-69
2022/01/05 05:41:39;;;;;;;0.97;0.87;;;1.90;99.90;;;;;;4991180;28;20207;-69
2022/01/05 05:44:05;;;;;;;0.60;0.57;;;1.90;99.90;;;;;;4992140;28;20842;-69
2022/01/05 05:46:31;;;;;;;0.60;0.50;;;1.90;99.90;;;;;;4991195;28;20614;-71
2022/01/05 05:48:57;;;;;;;0.63;0.60;;;1.90;99.90;;;;;;4992300;28;20176;-69
2022/01/05 05:51:22;;;;;;;0.67;0.60;;;1.90;99.90;;;;;;4992300;28;20787;-70
2022/01/05 05:53:48;;;;;;;0.60;0.50;;;1.90;99.90;;;;;;4992118;28;20275;-69
2022/01/05 05:56:13;;;;;;;0.67;0.60;;;1.80;99.90;;;;;;4987940;28;20194;-70
2022/01/05 05:58:39;;;;;;;0.63;0.60;;;1.90;99.90;;;;;;4990264;28;20169;-70
2022/01/05 06:01:04;;;;;;;0.90;0.90;;;1.90;99.90;;;;;;4990715;28;20664;-70
2022/01/05 06:03:30;;;;;;;0.60;0.57;;;1.90;99.90;;;;;;4992073;28;20600;-72
2022/01/05 06:05:55;;;;;;;0.67;0.60;;;1.90;99.90;;;;;;4992295;28;20254;-70
2022/01/05 06:08:21;;;;;;;0.60;0.60;;;1.90;99.90;;;;;;4991425;28;20192;-70
2022/01/05 06:10:47;;;;;;;0.60;0.60;;;1.80;99.90;;;;;;4995563;28;20239;-70
2022/01/05 06:13:12;;;;;;;0.60;0.60;;;1.80;99.90;;;;;;4995925;28;20229;-71
2022/01/05 06:15:38;;;;;;;0.67;0.50;;;1.80;99.90;;;;;;4997161;28;20204;-70
2022/01/05 06:18:03;;;;;;;0.67;0.60;;;1.80;99.90;;;;;;4995790;28;20182;-70
2022/01/05 06:20:29;;;;;;;0.60;0.50;;;1.90;99.90;;;;;;4995565;28;20270;-70
2022/01/05 06:22:54;;;;;;;0.60;0.60;;;1.90;99.90;;;;;;4995379;28;20263;-70
2022/01/05 06:25:20;;;;;;;0.63;0.53;;;1.90;99.90;;;;;;4992601;28;20204;-70
2022/01/05 06:27:45;;;;;;;0.60;0.60;;;1.90;99.90;;;;;;4986127;28;20189;-70
2022/01/05 06:30:11;;;;;;;0.60;0.57;;;2.00;99.90;;;;;;4991924;28;20200;-70
2022/01/05 06:32:45;;;;;;;0.70;0.70;;;2.00;99.90;;;;;;4985868;28;20192;-70
2022/01/05 06:35:10;;;;;;;0.60;0.50;;;2.10;99.90;;;;;;4978551;28;20478;-70
2022/01/05 06:37:36;;;;;;;0.63;0.60;;;2.10;99.90;;;;;;4994512;28;20860;-72
2022/01/05 06:40:02;;;;;;;0.67;0.60;;;2.10;99.90;;;;;;4995168;28;20192;-71
2022/01/05 06:42:28;;;;;;;0.60;0.50;;;2.20;99.90;;;;;;4995290;28;20192;-71
2022/01/05 06:44:53;;;;;;;0.60;0.60;;;2.20;99.90;;;;;;4995565;28;20451;-69
2022/01/05 06:47:19;;;;;;;0.60;0.60;;;2.30;99.90;;;;;;4993938;28;20234;-71
2022/01/05 06:49:44;;;;;;;0.67;0.60;;;2.40;99.90;;;;;;4994293;28;20211;-70
2022/01/05 06:52:11;;;;;;;0.60;0.50;;;2.40;99.90;;;;;;4993987;28;20204;-70
2022/01/05 06:54:40;;;;;;;0.67;0.60;;;2.50;99.90;;;;;;4989949;28;20566;-70
2022/01/05 06:57:07;;;;;;;0.60;0.50;;;2.50;99.90;;;;;;4986193;28;20534;-71
2022/01/05 06:59:32;;;;;;;0.60;0.50;;;2.50;99.90;;;;;;4994254;28;20448;-71
2022/01/05 07:01:58;;;;;;;0.60;0.50;;;2.50;99.90;;;;;;4994977;28;20450;-70
2022/01/05 07:04:23;;;;;;;0.67;0.60;;;2.60;99.90;;;;;;4994248;28;20212;-70
2022/01/05 07:06:49;;;;;;;0.60;0.50;;;2.60;99.90;;;;;;4991503;28;20181;-70
2022/01/05 07:09:14;;;;;;;0.67;0.50;;;2.60;99.90;;;;;;4994705;28;20661;-70
2022/01/05 07:11:43;;;;;;;0.67;0.53;;;2.60;99.90;;;;;;4992787;28;20566;-69
2022/01/05 07:14:08;;;;;;;0.60;0.53;;;2.70;99.90;;;;;;4993625;28;20638;-70
2022/01/05 07:16:34;;;;;;;0.70;0.50;;;2.70;99.90;;;;;;4992987;28;20449;-70
2022/01/05 07:19:00;;;;;;;0.67;0.60;;;2.70;99.90;;;;;;4994001;28;20264;-69
2022/01/05 07:21:25;;;;;;;0.90;0.90;;;2.70;99.90;;;;;;4993423;28;20549;-70
2022/01/05 07:23:51;;;;;;;0.60;0.60;;;2.70;99.90;;;;;;4992687;28;20208;-70
2022/01/05 07:26:16;;;;;;;0.67;0.50;;;2.70;99.90;;;;;;4993686;28;20207;-71
2022/01/05 07:28:42;;;;;;;0.60;0.50;;;2.80;99.90;;;;;;4993906;28;20271;-70
2022/01/05 07:31:07;;;;;;;0.70;0.60;;;2.80;99.90;;;;;;4993670;28;20239;-70
2022/01/05 07:33:33;;;;;;;0.63;0.50;;;2.80;99.90;;;;;;4993124;28;20185;-70
2022/01/05 07:35:58;;;;;;;0.60;0.50;;;2.80;99.90;;;;;;4994501;28;20192;-70
2022/01/05 07:38:24;;;;;;;0.60;0.50;;;2.80;99.90;;;;;;4993355;28;20181;-70
2022/01/05 07:40:50;;;;;;;0.80;0.70;;;2.90;99.90;;;;;;4993604;28;20243;-70
2022/01/05 07:43:15;;;;;;;0.60;0.60;;;2.90;99.90;;;;;;4993636;28;20183;-70
2022/01/05 07:45:41;;;;;;;0.60;0.50;;;2.90;99.90;;;;;;4994284;28;20201;-70
2022/01/05 07:48:07;;;;;;;0.60;0.50;;;2.90;99.90;;;;;;4993337;28;20246;-70
2022/01/05 07:50:33;;;;;;;0.60;0.60;;;2.90;99.90;;;;;;4995073;28;20201;-70
2022/01/05 07:53:01;;;;;;;0.60;0.50;;;2.90;99.90;;;;;;4992690;28;20455;-70
2022/01/05 07:55:30;;;;;;;0.60;0.50;;;2.90;99.90;;;;;;4994301;28;20436;-71
2022/01/05 07:57:56;;;;;;;0.67;0.63;;;3.00;99.90;;;;;;4984807;28;20495;-70
2022/01/05 08:00:21;;;;;;;0.60;0.60;;;2.90;99.90;;;;;;4991655;28;21041;-68
2022/01/05 08:02:47;;;;;;;0.67;0.50;;;3.00;99.90;;;;;;4993547;28;20316;-69
2022/01/05 08:05:12;;;;;;;0.60;0.53;;;3.00;99.90;;;;;;4994835;28;20326;-70
2022/01/05 08:07:38;;;;;;;0.60;0.50;;;3.00;99.90;;;;;;4992746;28;20181;-70
2022/01/05 08:10:04;;;;;;;0.60;0.50;;;3.00;99.90;;;;;;4993352;28;20207;-69
2022/01/05 08:12:29;;;;;;;0.60;0.57;;;3.00;99.90;;;;;;4992762;28;20255;-69
2022/01/05 08:14:55;;;;;;;0.60;0.57;;;3.00;99.90;;;;;;4993454;28;20462;-70
2022/01/05 08:17:20;;;;;;;0.67;0.60;;;3.10;99.90;;;;;;4993171;28;20650;-70
2022/01/05 08:19:46;;;;;;;0.60;0.60;;;3.10;99.90;;;;;;4992525;28;20208;-70
2022/01/05 08:22:11;;;;;;;0.70;0.70;;;3.10;99.90;;;;;;4989127;28;20186;-70
2022/01/05 08:24:38;;;;;;;0.63;0.60;;;3.20;99.90;;;;;;4992695;28;20230;-70
2022/01/05 08:27:04;;;;;;;0.67;0.60;;;3.30;99.90;;;;;;4992707;28;20205;-69
2022/01/05 08:29:29;;;;;;;0.73;0.73;;;3.20;99.90;;;;;;4992317;28;20464;-70
2022/01/05 08:31:55;;;;;;;0.67;0.60;;;3.30;99.90;;;;;;4990911;28;20470;-70
2022/01/05 08:34:20;;;;;;;0.60;0.50;;;3.40;99.90;;;;;;4987795;28;20280;-70
2022/01/05 08:36:46;;;;;;;0.63;0.60;;;3.40;99.90;;;;;;4980804;28;20651;-70
2022/01/05 08:39:11;;;;;;;0.67;0.50;;;3.40;99.90;;;;;;4993150;28;20255;-70
2022/01/05 08:41:37;;;;;;;0.67;0.50;;;3.50;99.90;;;;;;4988968;28;20684;-70
2022/01/05 08:44:03;;;;;;;0.87;0.87;;;3.70;99.90;;;;;;4993948;28;20260;-70
2022/01/05 08:46:28;;;;;;;0.60;0.50;;;3.80;99.90;;;;;;4993300;28;20183;-70
2022/01/05 08:48:54;;;;;;;1.47;1.37;;;3.80;99.90;;;;;;4991458;28;20177;-69
2022/01/05 08:51:19;;;;;;;0.60;0.50;;;3.70;99.90;;;;;;4992570;28;20193;-71
2022/01/05 08:53:45;;;;;;;0.90;0.90;;;3.70;99.90;;;;;;4992649;28;20180;-70
2022/01/05 08:56:11;;;;;;;0.60;0.50;;;3.70;99.90;;;;;;4992501;28;20593;-70
2022/01/05 08:58:36;;;;;;;0.67;0.50;;;3.60;99.90;;;;;;4992240;28;20196;-71
2022/01/05 09:01:02;;;;;;;0.70;0.70;;;3.70;99.90;;;;;;4992744;28;20614;-71
2022/01/05 09:03:28;;;;;;;0.67;0.50;;;3.60;99.90;;;;;;4993641;28;20177;-70
2022/01/05 09:05:53;;;;;;;0.67;0.57;;;3.70;99.90;;;;;;4993818;28;20200;-70
2022/01/05 09:08:19;;;;;;;0.60;0.60;;;3.80;99.90;;;;;;4991984;28;20192;-70
2022/01/05 09:10:44;;;;;;;0.60;0.50;;;3.80;99.90;;;;;;4992539;28;20721;-70
2022/01/05 09:13:11;;;;;;;1.10;1.10;;;3.80;99.90;;;;;;4989635;28;20659;-71
2022/01/05 09:15:37;;;;;;;0.60;0.60;;;3.80;99.90;;;;;;4992429;28;20200;-70
2022/01/05 09:18:03;;;;;;;0.90;0.90;;;3.70;99.90;;;;;;4992205;28;20541;-70
2022/01/05 09:20:28;;;;;;;0.60;0.60;;;3.70;99.90;;;;;;4992129;28;20878;-69
2022/01/05 09:22:55;;;;;;;0.67;0.60;;;3.70;99.90;;;;;;4992814;28;20176;-69
2022/01/05 09:25:23;;;;;;;0.93;0.93;;;3.70;99.90;;;;;;4992445;28;20703;-70
2022/01/05 09:27:49;;;;;;;0.80;0.80;;;3.70;99.90;;;;;;4992879;28;20435;-70
2022/01/05 09:30:16;;;;;;;0.67;0.60;;;3.80;99.90;;;;;;4989096;28;20456;-70
2022/01/05 09:32:42;;;;;;;0.60;0.50;;;3.90;99.90;;;;;;4992924;28;20427;-70
2022/01/05 09:35:10;;;;;;;0.60;0.53;;;3.90;99.90;;;;;;4992841;28;20817;-70
2022/01/05 09:37:38;;;;;;;0.90;0.90;;;3.90;99.90;;;;;;4974807;28;20176;-70
2022/01/05 09:42:49;;;;;;;0.80;0.70;;;4.00;99.90;;;;;;4992276;28;20458;-70
2022/01/05 09:45:15;;;;;;;0.83;0.83;;;4.00;99.90;;;;;;4992286;28;20448;-70
2022/01/05 09:48:01;;;;;;;0.60;0.60;;;4.10;99.90;;;;;;4993708;28;20272;-70
2022/01/05 09:50:27;;;;;;;0.67;0.60;;;4.30;99.90;;;;;;4991576;28;20203;-69
2022/01/05 09:52:54;;;;;;;0.67;0.60;;;4.50;99.90;;;;;;4994207;28;20428;-70
2022/01/05 09:55:20;;;;;;;1.90;1.80;;;4.80;99.90;;;;;;4992917;28;20486;-70
2022/01/05 09:57:46;;;;;;;0.67;0.50;;;5.10;99.90;;;;;;4992382;28;20504;-69
2022/01/05 10:00:14;;;;;;;0.67;0.60;;;5.10;99.90;;;;;;4993222;28;20177;-70
2022/01/05 10:02:41;;;;;;;0.70;0.70;;;5.00;99.90;;;;;;4994015;28;20452;-70
2022/01/05 10:05:11;;;;;;;0.67;0.63;;;4.70;99.90;;;;;;4992512;28;20447;-70
2022/01/05 10:07:38;;;;;;;0.67;0.60;;;4.70;99.90;;;;;;4992168;28;20423;-69
2022/01/05 10:10:04;;;;;;;0.80;0.70;;;4.60;99.90;;;;;;4987644;28;20452;-70
2022/01/05 10:12:30;;;;;;;0.80;0.70;;;4.70;99.90;;;;;;4992540;28;20510;-71
2022/01/05 10:14:55;;;;;;;0.70;0.60;;;4.90;99.90;;;;;;4992532;28;20478;-70
2022/01/05 10:17:29;;;;;;;0.70;0.70;;;4.90;99.90;;;;;;4993408;28;20177;-69
2022/01/05 10:20:00;;;;;;;0.67;0.60;;;4.90;99.90;;;;;;4980521;28;20208;-70
2022/01/05 10:22:40;;;;;;;0.70;0.60;;;4.90;99.90;;;;;;4975540;28;20511;-70
2022/01/05 10:25:17;;;;;;;1.07;1.07;;;4.80;99.90;;;;;;4993572;28;20462;-70
2022/01/05 10:27:53;;;;;;;0.67;0.60;;;4.90;99.90;;;;;;4975060;28;20459;-70
2022/01/05 10:30:19;;;;;;;0.67;0.60;;;5.00;99.90;;;;;;4992432;28;20486;-70
2022/01/05 10:32:45;;;;;;;0.70;0.60;;;5.00;99.90;;;;;;4991673;28;20424;-69
2022/01/05 10:35:15;;;;;;;1.00;0.80;;;5.10;99.90;;;;;;4982946;28;20224;-70
2022/01/05 10:37:46;;;;;;;1.23;1.13;;;5.00;99.90;;;;;;4990626;28;20428;-70
2022/01/05 10:40:19;;;;;;;0.60;0.57;;;5.20;99.90;;;;;;4991689;28;20439;-68
2022/01/05 10:42:46;;;;;;;0.70;0.60;;;5.30;99.90;;;;;;4991845;28;20428;-69
2022/01/05 10:45:15;;;;;;;0.70;0.60;;;5.20;99.90;;;;;;4991111;28;20448;-70
2022/01/05 10:47:41;;;;;;;0.67;0.60;;;5.20;99.90;;;;;;4991664;28;20444;-69
2022/01/05 10:50:17;;;;;;;0.67;0.60;;;5.10;99.90;;;;;;4991918;28;20960;-69
2022/01/05 10:52:52;;;;;;;0.67;0.60;;;5.00;99.90;;;;;;4991900;28;20535;-70
2022/01/05 10:55:19;;;;;;;0.67;0.60;;;5.00;99.90;;;;;;4993289;28;20497;-70
2022/01/05 10:57:58;;;;;;;0.67;0.60;;;5.10;99.90;;;;;;4996147;28;20424;-69
2022/01/05 11:00:37;;;;;;;0.70;0.60;;;5.40;99.90;;;;;;4992947;28;20474;-70
2022/01/05 11:03:26;;;;;;;0.73;0.73;;;6.40;99.90;;;;;;4964325;28;20428;-69
2022/01/05 11:06:09;;;;;;;0.67;0.60;;;7.50;99.90;;;;;;4995407;28;20530;-70
2022/01/05 11:08:55;;;;;;;0.80;0.80;;;8.10;99.90;;;;;;4994148;28;20531;-70
2022/01/05 11:11:44;;;;;;;0.70;0.60;;;8.10;99.90;;;;;;4995067;28;20467;-70
2022/01/05 11:14:17;;;;;;;0.70;0.70;;;7.50;99.90;;;;;;4995129;28;20428;-69
2022/01/05 11:16:46;;;;;;;3.87;0.87;;;7.00;99.90;;;;;;4994987;28;20425;-70
2022/01/05 11:19:27;;;;;;;0.90;0.90;;;6.60;99.90;;;;;;4994673;28;20466;-70
2022/01/05 11:22:15;;;;;;;0.70;0.60;;;6.60;99.90;;;;;;4987397;28;20424;-70
2022/01/05 11:24:43;;;;;;;1.33;0.83;;;6.40;99.90;;;;;;4994997;28;20510;-70
2022/01/05 11:27:15;;;;;;;0.70;0.70;;;6.20;99.90;;;;;;4994673;28;20783;-71
2022/01/05 11:29:41;;;;;;;0.70;0.60;;;6.10;99.90;;;;;;4994295;28;20463;-71
2022/01/05 11:32:09;;;;;;;0.70;0.70;;;6.20;99.90;;;;;;4972189;28;20425;-71
2022/01/05 11:34:35;;;;;;;0.90;0.90;;;6.40;99.90;;;;;;4985276;28;20463;-72
2022/01/05 11:37:01;;;;;;;0.67;0.60;;;6.20;99.90;;;;;;4994493;28;20448;-70
2022/01/05 11:39:28;;;;;;;0.70;0.60;;;6.10;99.90;;;;;;4994384;28;20192;-71
2022/01/05 11:41:56;;;;;;;0.70;0.60;;;6.00;99.90;;;;;;4994049;28;20438;-70
2022/01/05 11:44:27;;;;;;;0.70;0.60;;;6.00;99.90;;;;;;4994661;28;20812;-69
2022/01/05 11:46:53;;;;;;;0.80;0.80;;;5.80;99.90;;;;;;4994579;28;20444;-70
2022/01/05 11:49:28;;;;;;;0.70;0.60;;;5.90;99.90;;;;;;4976709;28;20432;-69
2022/01/05 11:51:56;;;;;;;0.70;0.70;;;6.00;99.90;;;;;;4994598;28;20430;-70
2022/01/05 11:54:31;;;;;;;0.90;0.80;;;6.10;99.90;;;;;;4993013;28;20476;-71
2022/01/05 11:57:08;;;;;;;0.70;0.70;;;6.70;99.90;;;;;;4979263;28;20980;-70
2022/01/05 11:59:36;;;;;;;0.90;0.83;;;6.80;99.90;;;;;;4984012;28;20522;-70
2022/01/05 12:02:09;;;;;;;0.70;0.60;;;7.20;99.90;;;;;;4994380;28;20797;-70
2022/01/05 12:04:56;;;;;;;1.10;1.00;;;7.20;99.90;;;;;;4994068;28;20518;-69
2022/01/05 12:07:44;;;;;;;0.70;0.60;;;7.40;99.90;;;;;;4993802;28;20948;-71
2022/01/05 12:10:17;;;;;;;0.77;0.77;;;7.50;99.90;;;;;;4994334;28;20999;-69
2022/01/05 12:13:02;;;;;;;0.67;0.60;;;7.30;99.90;;;;;;4993813;28;20428;-70
2022/01/05 12:15:51;;;;;;;0.70;0.67;;;6.80;99.90;;;;;;4993486;28;20451;-70
2022/01/05 12:18:25;;;;;;;0.67;0.50;;;6.50;99.90;;;;;;4993801;28;20455;-70
2022/01/05 12:20:51;;;;;;;0.70;0.70;;;6.30;99.90;;;;;;4993772;28;20430;-70
2022/01/05 12:23:28;;;;;;;1.00;0.80;;;6.10;99.90;;;;;;4993968;28;20424;-70
2022/01/05 12:26:03;;;;;;;0.70;0.60;;;5.90;99.90;;;;;;4993414;28;20454;-70
2022/01/05 12:28:31;;;;;;;0.67;0.60;;;5.70;99.90;;;;;;4993394;28;20483;-70
2022/01/05 12:30:57;;;;;;;0.70;0.60;;;5.80;99.90;;;;;;4993671;28;20471;-71
2022/01/05 12:33:24;;;;;;;0.70;0.60;;;5.90;99.90;;;;;;4993612;28;20570;-69
2022/01/05 12:36:00;;;;;;;0.70;0.67;;;6.10;99.90;;;;;;4993282;28;20810;-70
2022/01/05 12:38:54;;;;;;;0.67;0.60;;;6.40;99.90;;;;;;4993087;28;20419;-70
2022/01/05 12:41:40;;;;;;;0.80;0.80;;;6.70;99.90;;;;;;4993542;28;20446;-69
2022/01/05 12:44:13;;;;;;;0.70;0.60;;;6.60;99.90;;;;;;4979367;28;20428;-70
2022/01/05 12:46:44;;;;;;;0.67;0.60;;;6.50;99.90;;;;;;4993003;28;20523;-69
2022/01/05 12:49:14;;;;;;;0.70;0.60;;;6.50;99.90;;;;;;4979652;28;20507;-70
2022/01/05 12:52:14;;;;;;;1.33;1.23;;;6.50;99.90;;;;;;4993257;28;20991;-70
2022/01/05 12:54:44;;;;;;;0.67;0.60;;;6.30;99.90;;;;;;4988694;28;20828;-70
2022/01/05 12:57:17;;;;;;;0.67;0.60;;;6.20;99.90;;;;;;4993255;28;20512;-70
2022/01/05 12:59:47;;;;;;;0.67;0.60;;;6.10;99.90;;;;;;4993097;28;20428;-70
2022/01/05 13:02:27;;;;;;;0.90;0.90;;;6.20;99.90;;;;;;4993038;28;20523;-70
2022/01/05 13:04:58;;;;;;;0.67;0.60;;;6.20;99.90;;;;;;4993141;28;20436;-69